createdAt,value
2022-09-17T00:01:21.994Z,68205.94
2022-09-17T00:03:55.640Z,68201.81
2022-09-17T00:06:24.500Z,68206.53
2022-09-17T00:08:53.765Z,68207.09
2022-09-17T00:11:25.211Z,68211.22
2022-09-17T00:13:54.198Z,68210.47
2022-09-17T00:16:24.966Z,68217.84
2022-09-17T00:18:52.365Z,68223.31
2022-09-17T00:21:20.872Z,68216.50
2022-09-17T00:23:48.483Z,68216.16
2022-09-17T00:26:15.734Z,68216.72
2022-09-17T00:28:45.462Z,68219.53
2022-09-17T00:31:15.129Z,68223.31
2022-09-17T00:33:42.462Z,68212.75
2022-09-17T00:36:10.018Z,68212.75
2022-09-17T00:38:38.660Z,68220.50
2022-09-17T00:41:07.125Z,68225.41
2022-09-17T00:43:47.340Z,68219.72
2022-09-17T00:46:37.913Z,68200.88
2022-09-17T00:49:11.308Z,68237.28
2022-09-17T00:51:55.059Z,68233.72
2022-09-17T00:54:26.269Z,68243.13
2022-09-17T00:56:53.337Z,68237.47
2022-09-17T00:59:24.662Z,68244.28
2022-09-17T01:01:52.940Z,68237.28
2022-09-17T01:04:23.117Z,68228.03
2022-09-17T01:07:01.380Z,68222.00
2022-09-17T01:09:53.483Z,68235.22
2022-09-17T01:12:58.596Z,68232.56
2022-09-17T01:15:49.424Z,68224.81
2022-09-17T01:18:39.368Z,68214.84
2022-09-17T01:21:24.565Z,68214.25
2022-09-17T01:24:18.152Z,68219.53
2022-09-17T01:27:17.251Z,68222.94
2022-09-17T01:30:08.847Z,68216.72
2022-09-17T01:32:42.037Z,68211.44
2022-09-17T01:35:32.527Z,68218.78
2022-09-17T01:38:27.298Z,68213.50
2022-09-17T01:41:00.429Z,68210.66
2022-09-17T01:43:33.525Z,68213.31
2022-09-17T01:46:10.290Z,68212.19
2022-09-17T01:48:44.486Z,68210.09
2022-09-17T01:51:16.799Z,68213.31
2022-09-17T01:53:51.748Z,68213.88
2022-09-17T01:56:26.370Z,68217.28
2022-09-17T01:59:07.519Z,68213.88
2022-09-17T02:01:38.422Z,68211.81
2022-09-17T02:04:11.718Z,68212.94
2022-09-17T02:06:44.486Z,68214.44
2022-09-17T02:09:18.126Z,68212.19
2022-09-17T02:11:51.541Z,68213.50
2022-09-17T02:14:25.405Z,68221.63
2022-09-17T02:16:57.117Z,68220.28
2022-09-17T02:19:32.320Z,68212.19
2022-09-17T02:22:19.681Z,68210.09
2022-09-17T02:25:02.945Z,68211.97
2022-09-17T02:27:51.894Z,68214.25
2022-09-17T02:30:19.433Z,68209.91
2022-09-17T02:32:46.664Z,68211.03
2022-09-17T02:35:14.513Z,68212.75
2022-09-17T02:37:43.863Z,68207.09
2022-09-17T02:40:14.575Z,68203.31
2022-09-17T02:43:08.501Z,68206.91
2022-09-17T02:46:03.291Z,68206.91
2022-09-17T02:48:57.374Z,68207.63
2022-09-17T02:51:30.286Z,68207.09
2022-09-17T02:54:29.612Z,68208.22
2022-09-17T02:56:57.182Z,68214.81
2022-09-17T02:59:31.836Z,68210.28
2022-09-17T03:02:07.569Z,68212.53
2022-09-17T03:04:36.036Z,68211.59
2022-09-17T03:07:09.019Z,68207.63
2022-09-17T03:09:36.185Z,68203.31
2022-09-17T03:12:04.144Z,68207.63
2022-09-17T03:14:31.893Z,68212.19
2022-09-17T03:16:58.873Z,68205.75
2022-09-17T03:19:25.969Z,68209.34
2022-09-17T03:21:53.033Z,68218.59
2022-09-17T03:24:20.218Z,68213.69
2022-09-17T03:26:50.718Z,68207.84
2022-09-17T03:29:20.195Z,68212.19
2022-09-17T03:31:47.358Z,68211.03
2022-09-17T03:34:14.582Z,68211.81
2022-09-17T03:36:41.869Z,68210.09
2022-09-17T03:39:09.019Z,68216.16
2022-09-17T03:41:36.406Z,68211.03
2022-09-17T03:44:03.548Z,68216.72
2022-09-17T03:46:30.733Z,68214.44
2022-09-17T03:48:57.921Z,68221.06
2022-09-17T03:51:25.060Z,68220.13
2022-09-17T03:53:52.175Z,68225.00
2022-09-17T03:56:19.645Z,68215.56
2022-09-17T03:58:47.083Z,68218.41
2022-09-17T04:01:14.875Z,68203.88
2022-09-17T04:03:42.255Z,68206.69
2022-09-17T04:06:09.366Z,68201.25
2022-09-17T04:08:36.720Z,68209.34
2022-09-17T04:11:03.916Z,68213.69
2022-09-17T04:13:31.176Z,68208.78
2022-09-17T04:15:58.315Z,68207.09
2022-09-17T04:18:25.517Z,68200.47
2022-09-17T04:20:53.476Z,68206.53
2022-09-17T04:23:20.883Z,68204.81
2022-09-17T04:25:47.843Z,68197.06
2022-09-17T04:28:14.965Z,68192.34
2022-09-17T04:30:43.321Z,68197.44
2022-09-17T04:33:10.464Z,68188.97
2022-09-17T04:35:37.645Z,68198.41
2022-09-17T04:38:04.820Z,68190.28
2022-09-17T04:40:32.021Z,68180.47
2022-09-17T04:42:59.970Z,68181.03
2022-09-17T04:45:26.966Z,68171.41
2022-09-17T04:47:53.973Z,68191.97
2022-09-17T04:50:21.463Z,68174.06
2022-09-17T04:52:50.025Z,68173.69
2022-09-17T04:55:17.478Z,68169.13
2022-09-17T04:57:53.184Z,68172.53
2022-09-17T05:00:22.191Z,68170.47
2022-09-17T05:02:52.610Z,68161.22
2022-09-17T05:05:20.629Z,68157.25
2022-09-17T05:07:48.124Z,68157.81
2022-09-17T05:10:17.597Z,68161.59
2022-09-17T05:12:52.558Z,68152.53
2022-09-17T05:15:20.494Z,68167.25
2022-09-17T05:17:47.635Z,68160.66
2022-09-17T05:20:16.299Z,68149.53
2022-09-17T05:22:45.212Z,68163.09
2022-09-17T05:25:14.161Z,68157.25
2022-09-17T05:27:42.125Z,68155.75
2022-09-17T05:30:09.661Z,68150.47
2022-09-17T05:32:37.701Z,68157.44
2022-09-17T05:35:06.108Z,68156.13
2022-09-17T05:37:33.509Z,68155.16
2022-09-17T05:40:00.854Z,68157.25
2022-09-17T05:42:28.237Z,68153.28
2022-09-17T05:44:55.379Z,68155.00
2022-09-17T05:47:22.629Z,68159.50
2022-09-17T05:49:49.693Z,68168.56
2022-09-17T05:52:16.797Z,68164.78
2022-09-17T05:54:43.949Z,68171.03
2022-09-17T05:57:11.108Z,68163.69
2022-09-17T05:59:38.219Z,68165.75
2022-09-17T06:02:05.380Z,68160.09
2022-09-17T06:04:34.921Z,68158.56
2022-09-17T06:07:09.404Z,68169.34
2022-09-17T06:09:37.630Z,68169.13
2022-09-17T06:12:05.277Z,68175.75
2022-09-17T06:14:32.639Z,68175.19
2022-09-17T06:17:00.692Z,68166.31
2022-09-17T06:19:27.970Z,68175.19
2022-09-17T06:21:55.416Z,68180.47
2022-09-17T06:24:22.498Z,68177.25
2022-09-17T06:26:49.598Z,68180.09
2022-09-17T06:29:16.814Z,68175.56
2022-09-17T06:31:48.914Z,68157.84
2022-09-17T06:34:17.667Z,68179.34
2022-09-17T06:36:44.763Z,68183.31
2022-09-17T06:39:11.936Z,68181.59
2022-09-17T06:41:39.267Z,68171.97
2022-09-17T06:44:06.462Z,68179.34
2022-09-17T06:46:33.637Z,68181.03
2022-09-17T06:49:00.865Z,68182.94
2022-09-17T06:51:28.052Z,68179.34
2022-09-17T06:53:55.320Z,68180.28
2022-09-17T06:56:22.441Z,68181.03
2022-09-17T06:58:49.728Z,68173.09
2022-09-17T07:01:16.882Z,68173.09
2022-09-17T07:03:44.148Z,68165.38
2022-09-17T07:06:11.361Z,68164.63
2022-09-17T07:08:39.592Z,68170.66
2022-09-17T07:11:08.099Z,68168.56
2022-09-17T07:13:35.902Z,68178.19
2022-09-17T07:16:05.320Z,68170.84
2022-09-17T07:18:33.149Z,68168.56
2022-09-17T07:21:02.030Z,68170.47
2022-09-17T07:23:32.266Z,68175.38
2022-09-17T07:26:01.890Z,68170.84
2022-09-17T07:28:29.397Z,68181.97
2022-09-17T07:30:57.483Z,68177.25
2022-09-17T07:33:28.176Z,68178.97
2022-09-17T07:35:57.948Z,68195.19
2022-09-17T07:38:26.277Z,68196.31
2022-09-17T07:40:55.610Z,68195.75
2022-09-17T07:43:22.912Z,68201.03
2022-09-17T07:45:50.050Z,68211.03
2022-09-17T07:48:17.136Z,68222.38
2022-09-17T07:50:44.223Z,68235.03
2022-09-17T07:53:11.621Z,68244.47
2022-09-17T07:55:38.988Z,68241.63
2022-09-17T07:58:06.150Z,68240.50
2022-09-17T08:00:33.436Z,68242.19
2022-09-17T08:03:00.797Z,68237.66
2022-09-17T08:05:28.017Z,68242.00
2022-09-17T08:07:55.667Z,68258.06
2022-09-17T08:10:23.669Z,68248.63
2022-09-17T08:12:54.635Z,68249.19
2022-09-17T08:15:22.757Z,68249.19
2022-09-17T08:17:51.187Z,68253.53
2022-09-17T08:20:19.257Z,68269.94
2022-09-17T08:22:49.969Z,68280.16
2022-09-17T08:25:17.697Z,68278.47
2022-09-17T08:27:44.943Z,68277.50
2022-09-17T08:30:12.215Z,68295.25
2022-09-17T08:32:39.482Z,68301.69
2022-09-17T08:35:07.464Z,68311.16
2022-09-17T08:37:35.224Z,68317.38
2022-09-17T08:40:02.604Z,68316.22
2022-09-17T08:42:41.872Z,68332.31
2022-09-17T08:45:19.142Z,68334.03
2022-09-17T08:47:48.341Z,68340.06
2022-09-17T08:50:19.009Z,68345.34
2022-09-17T08:53:34.273Z,68340.63
2022-09-17T08:56:21.523Z,68341.38
2022-09-17T08:59:21.549Z,68332.69
2022-09-17T09:02:01.150Z,68333.44
2022-09-17T09:04:36.451Z,68326.28
2022-09-17T09:07:08.092Z,68327.56
2022-09-17T09:09:40.092Z,68339.09
2022-09-17T09:12:16.138Z,68348.19
2022-09-17T09:14:58.695Z,68359.16
2022-09-17T09:17:35.278Z,68393.91
2022-09-17T09:20:02.723Z,68437.22
2022-09-17T09:22:42.992Z,68451.00
2022-09-17T09:25:27.017Z,68471.81
2022-09-17T09:28:01.414Z,68479.00
2022-09-17T09:30:57.086Z,68457.63
2022-09-17T09:33:38.199Z,68498.50
2022-09-17T09:36:08.262Z,68524.63
2022-09-17T09:38:50.422Z,68502.09
2022-09-17T09:41:31.798Z,68457.44
2022-09-17T09:44:05.618Z,68377.66
2022-09-17T09:47:20.587Z,68328.91
2022-09-17T09:50:48.419Z,68301.69
2022-09-17T09:54:16.168Z,68341.00
2022-09-17T09:56:49.998Z,68362.94
2022-09-17T09:59:19.229Z,68402.25
2022-09-17T10:01:46.982Z,68423.03
2022-09-17T10:04:23.048Z,68417.38
2022-09-17T10:06:59.903Z,68399.78
2022-09-17T10:09:30.014Z,68457.44
2022-09-17T10:12:01.336Z,68425.31
2022-09-17T10:14:31.336Z,68386.75
2022-09-17T10:17:14.847Z,68386.75
2022-09-17T10:19:42.915Z,68343.09
2022-09-17T10:22:28.490Z,68359.16
2022-09-17T10:24:58.064Z,68353.84
2022-09-17T10:27:26.763Z,68369.34
2022-09-17T10:30:08.944Z,68406.41
2022-09-17T10:32:36.417Z,68403.38
2022-09-17T10:35:08.478Z,68455.94
2022-09-17T10:37:46.935Z,68481.66
2022-09-17T10:40:21.246Z,68451.38
2022-09-17T10:43:13.218Z,68412.06
2022-09-17T10:45:44.933Z,68403.75
2022-09-17T10:48:18.289Z,68414.72
2022-09-17T10:50:50.197Z,68452.91
2022-09-17T10:53:18.575Z,68495.25
2022-09-17T10:55:56.359Z,68536.72
2022-09-17T10:58:26.746Z,68517.81
2022-09-17T11:01:09.259Z,68466.91
2022-09-17T11:03:48.619Z,68497.19
2022-09-17T11:06:31.379Z,68545.63
2022-09-17T11:09:15.629Z,68578.72
2022-09-17T11:11:52.018Z,68576.28
2022-09-17T11:14:41.380Z,68571.00
2022-09-17T11:17:33.633Z,68614.91
2022-09-17T11:20:25.776Z,68576.09
2022-09-17T11:23:05.269Z,68582.69
2022-09-17T11:25:45.777Z,68572.88
2022-09-17T11:28:45.237Z,68556.41
2022-09-17T11:31:37.573Z,68534.25
2022-09-17T11:34:27.504Z,68492.63
2022-09-17T11:37:14.402Z,68417.38
2022-09-17T11:39:55.478Z,68300.16
2022-09-17T11:42:32.930Z,68238.59
2022-09-17T11:45:15.175Z,68223.13
2022-09-17T11:47:49.819Z,68213.88
2022-09-17T11:50:28.949Z,68203.13
2022-09-17T11:53:23.142Z,68198.59
2022-09-17T11:55:53.269Z,68218.22
2022-09-17T11:59:06.945Z,68244.84
2022-09-17T12:01:57.493Z,68331.19
2022-09-17T12:04:38.449Z,68375.56
2022-09-17T12:07:33.715Z,68424.91
2022-09-17T12:10:15.431Z,68388.44
2022-09-17T12:12:50.731Z,68388.63
2022-09-17T12:15:22.672Z,68341.56
2022-09-17T12:18:31.739Z,68311.31
2022-09-17T12:21:02.807Z,68299.81
2022-09-17T12:23:54.165Z,68293.19
2022-09-17T12:26:44.698Z,68290.91
2022-09-17T12:29:36.452Z,68293.94
2022-09-17T12:32:20.782Z,68284.31
2022-09-17T12:35:17.193Z,68289.41
2022-09-17T12:38:03.022Z,68352.72
2022-09-17T12:40:50.579Z,68410.56
2022-09-17T12:43:35.672Z,68429.66
2022-09-17T12:46:34.735Z,68457.06
2022-09-17T12:49:07.940Z,68467.47
2022-09-17T12:51:59.957Z,68513.81
2022-09-17T12:55:04.668Z,68547.31
2022-09-17T12:57:47.465Z,68516.13
2022-09-17T13:00:18.625Z,68457.63
2022-09-17T13:02:53.561Z,68436.66
2022-09-17T13:05:58.231Z,68409.59
2022-09-17T13:08:56.168Z,68394.50
2022-09-17T13:11:29.460Z,68400.72
2022-09-17T13:14:07.862Z,68396.75
2022-09-17T13:16:44.510Z,68358.75
2022-09-17T13:19:36.301Z,68332.69
2022-09-17T13:22:20.735Z,68321.72
2022-09-17T13:25:03.317Z,68291.84
2022-09-17T13:27:32.698Z,68286.00
2022-09-17T13:30:00.956Z,68278.06
2022-09-17T13:32:37.395Z,68286.00
2022-09-17T13:35:13.732Z,68304.50
2022-09-17T13:37:54.094Z,68335.16
2022-09-17T13:40:33.287Z,68358.38
2022-09-17T13:43:17.029Z,68415.66
2022-09-17T13:46:01.672Z,68475.78
2022-09-17T13:48:31.856Z,68520.09
2022-09-17T13:51:31.152Z,68543.53
2022-09-17T13:54:02.107Z,68587.06
2022-09-17T13:56:38.126Z,68618.88
2022-09-17T13:59:18.103Z,68618.25
2022-09-17T14:01:57.497Z,68644.44
2022-09-17T14:04:55.310Z,68666.03
2022-09-17T14:07:23.515Z,68681.38
2022-09-17T14:09:58.849Z,68663.94
2022-09-17T14:12:41.268Z,68655.59
2022-09-17T14:15:31.501Z,68641.00
2022-09-17T14:17:58.976Z,68651.81
2022-09-17T14:20:26.504Z,68647.63
2022-09-17T14:22:58.150Z,68623.97
2022-09-17T14:25:49.433Z,68635.53
2022-09-17T14:28:30.440Z,68621.13
2022-09-17T14:30:57.932Z,68592.94
2022-09-17T14:33:31.952Z,68577.41
2022-09-17T14:36:08.908Z,68566.25
2022-09-17T14:38:46.790Z,68555.84
2022-09-17T14:41:14.099Z,68556.78
2022-09-17T14:43:48.421Z,68575.53
2022-09-17T14:46:24.553Z,68569.47
2022-09-17T14:48:52.554Z,68560.94
2022-09-17T14:51:22.326Z,68556.03
2022-09-17T14:54:06.606Z,68542.03
2022-09-17T14:56:40.995Z,68511.16
2022-09-17T14:59:21.332Z,68487.72
2022-09-17T15:01:49.014Z,68449.69
2022-09-17T15:04:16.114Z,68414.53
2022-09-17T15:06:44.255Z,68408.28
2022-09-17T15:09:22.833Z,68412.63
2022-09-17T15:11:54.242Z,68405.25
2022-09-17T15:14:27.933Z,68449.13
2022-09-17T15:16:58.444Z,68499.06
2022-09-17T15:19:36.552Z,68513.81
2022-09-17T15:22:10.094Z,68546.00
2022-09-17T15:24:48.072Z,68545.44
2022-09-17T15:27:31.044Z,68514.41
2022-09-17T15:30:03.808Z,68482.41
2022-09-17T15:32:33.190Z,68482.59
2022-09-17T15:35:22.141Z,68474.09
2022-09-17T15:38:11.948Z,68472.38
2022-09-17T15:40:41.792Z,68461.63
2022-09-17T15:43:28.421Z,68454.81
2022-09-17T15:45:58.559Z,68444.41
2022-09-17T15:48:28.625Z,68472.38
2022-09-17T15:50:58.600Z,68492.44
2022-09-17T15:53:31.127Z,68519.50
2022-09-17T15:56:09.613Z,68528.03
2022-09-17T15:58:42.801Z,68528.41
2022-09-17T16:01:16.350Z,68533.50
2022-09-17T16:03:43.844Z,68525.38
2022-09-17T16:06:20.824Z,68511.56
2022-09-17T16:08:52.083Z,68497.91
2022-09-17T16:11:31.308Z,68487.72
2022-09-17T16:14:00.728Z,68484.28
2022-09-17T16:16:38.146Z,68476.34
2022-09-17T16:19:06.535Z,68465.75
2022-09-17T16:21:35.037Z,68445.91
2022-09-17T16:24:03.757Z,68430.97
2022-09-17T16:26:35.003Z,68422.66
2022-09-17T16:29:05.739Z,68418.09
2022-09-17T16:31:34.441Z,68418.50
2022-09-17T16:34:01.970Z,68413.97
2022-09-17T16:36:31.288Z,68410.56
2022-09-17T16:38:59.358Z,68400.91
2022-09-17T16:41:26.517Z,68406.59
2022-09-17T16:43:53.562Z,68408.66
2022-09-17T16:46:20.818Z,68360.28
2022-09-17T16:48:50.978Z,68313.41
2022-09-17T16:51:18.557Z,68289.59
2022-09-17T16:53:45.972Z,68276.75
2022-09-17T16:56:15.448Z,68262.59
2022-09-17T16:58:43.250Z,68261.84
2022-09-17T17:01:12.870Z,68254.09
2022-09-17T17:03:40.481Z,68255.22
2022-09-17T17:06:16.058Z,68256.72
2022-09-17T17:08:43.160Z,68249.56
2022-09-17T17:11:12.031Z,68257.50
2022-09-17T17:13:39.267Z,68273.16
2022-09-17T17:16:08.035Z,68282.81
2022-09-17T17:18:35.666Z,68299.03
2022-09-17T17:21:10.807Z,68295.63
2022-09-17T17:23:38.267Z,68296.59
2022-09-17T17:26:05.655Z,68303.56
2022-09-17T17:28:35.242Z,68298.28
2022-09-17T17:31:04.356Z,68298.28
2022-09-17T17:33:31.618Z,68300.94
2022-09-17T17:36:07.821Z,68293.38
2022-09-17T17:38:36.418Z,68304.34
2022-09-17T17:41:15.207Z,68303.94
2022-09-17T17:43:43.067Z,68306.97
2022-09-17T17:46:12.218Z,68310.56
2022-09-17T17:48:39.511Z,68302.25
2022-09-17T17:51:09.676Z,68297.72
2022-09-17T17:53:37.433Z,68294.31
2022-09-17T17:56:07.502Z,68279.78
2022-09-17T17:58:35.516Z,68286.22
2022-09-17T18:01:13.120Z,68273.94
2022-09-17T18:03:42.140Z,68270.53
2022-09-17T18:06:11.092Z,68267.13
2022-09-17T18:08:39.920Z,68272.59
2022-09-17T18:11:09.262Z,68265.41
2022-09-17T18:13:37.777Z,68247.47
2022-09-17T18:16:07.674Z,68252.75
2022-09-17T18:18:44.502Z,68243.34
2022-09-17T18:21:20.842Z,68235.59
2022-09-17T18:23:48.414Z,68236.53
2022-09-17T18:26:21.033Z,68230.31
2022-09-17T18:28:49.434Z,68230.69
2022-09-17T18:31:22.955Z,68222.75
2022-09-17T18:33:54.584Z,68217.28
2022-09-17T18:36:21.766Z,68212.75
2022-09-17T18:38:48.856Z,68208.22
2022-09-17T18:41:16.086Z,68194.63
2022-09-17T18:43:43.249Z,68191.78
2022-09-17T18:46:10.403Z,68189.53
2022-09-17T18:48:37.639Z,68179.34
2022-09-17T18:51:07.279Z,68175.94
2022-09-17T18:53:37.382Z,68166.31
2022-09-17T18:56:15.937Z,68157.81
2022-09-17T18:58:45.983Z,68165.75
2022-09-17T19:01:13.627Z,68166.69
2022-09-17T19:03:41.095Z,68164.06
2022-09-17T19:06:10.014Z,68169.13
2022-09-17T19:08:38.014Z,68168.00
2022-09-17T19:11:05.637Z,68170.66
2022-09-17T19:13:35.981Z,68163.31
2022-09-17T19:16:04.707Z,68165.75
2022-09-17T19:18:33.258Z,68166.31
2022-09-17T19:21:04.567Z,68168.19
2022-09-17T19:23:32.169Z,68162.72
2022-09-17T19:26:07.086Z,68157.44
2022-09-17T19:28:35.657Z,68158.00
2022-09-17T19:31:07.683Z,68166.69
2022-09-17T19:33:35.236Z,68137.47
2022-09-17T19:36:08.573Z,68158.00
2022-09-17T19:38:36.110Z,68167.25
2022-09-17T19:41:06.965Z,68164.63
2022-09-17T19:43:34.345Z,68175.00
2022-09-17T19:46:05.213Z,68170.44
2022-09-17T19:48:33.145Z,68166.31
2022-09-17T19:51:00.516Z,68170.28
2022-09-17T19:53:27.907Z,68176.13
2022-09-17T19:55:55.145Z,68169.13
2022-09-17T19:58:22.501Z,68152.34
2022-09-17T20:00:56.003Z,68147.25
2022-09-17T20:03:23.556Z,68122.53
2022-09-17T20:05:50.786Z,68113.06
2022-09-17T20:08:18.154Z,68108.56
2022-09-17T20:10:45.595Z,68090.09
2022-09-17T20:13:12.989Z,68089.50
2022-09-17T20:15:40.194Z,68077.22
2022-09-17T20:18:07.340Z,68075.19
2022-09-17T20:20:39.379Z,68066.13
2022-09-17T20:23:06.949Z,68067.81
2022-09-17T20:25:34.880Z,68064.78
2022-09-17T20:28:03.960Z,68071.38
2022-09-17T20:30:31.642Z,68060.47
2022-09-17T20:32:59.632Z,68071.00
2022-09-17T20:35:27.497Z,68063.50
2022-09-17T20:38:57.193Z,68056.13
2022-09-17T20:40:42.707Z,68052.16
2022-09-17T20:43:10.035Z,68049.72
2022-09-17T20:45:37.494Z,68034.25
2022-09-17T20:48:04.744Z,68026.53
2022-09-17T20:50:31.898Z,68015.78
2022-09-17T20:53:00.226Z,68019.91
2022-09-17T20:55:27.688Z,68006.91
2022-09-17T20:57:54.788Z,67997.69
2022-09-17T21:00:26.325Z,68002.97
2022-09-17T21:02:54.230Z,68007.66
2022-09-17T21:05:21.408Z,68001.66
2022-09-17T21:07:49.353Z,68007.66
2022-09-17T21:10:16.718Z,68013.91
2022-09-17T21:12:45.905Z,68003.91
2022-09-17T21:15:14.951Z,68005.59
2022-09-17T21:17:42.527Z,68006.53
2022-09-17T21:20:10.677Z,68004.47
2022-09-17T21:22:37.747Z,68010.13
2022-09-17T21:25:05.719Z,68023.69
2022-09-17T21:27:33.050Z,68022.00
2022-09-17T21:30:00.171Z,68022.00
2022-09-17T21:32:27.485Z,68033.69
2022-09-17T21:34:54.667Z,68032.16
2022-09-17T21:37:21.784Z,68027.50
2022-09-17T21:39:49.135Z,68038.41
2022-09-17T21:42:19.084Z,68041.78
2022-09-17T21:44:46.181Z,68037.28
2022-09-17T21:47:13.329Z,68038.97
2022-09-17T21:49:40.426Z,68032.75
2022-09-17T21:52:07.657Z,68043.50
2022-09-17T21:54:34.946Z,68041.03
2022-09-17T21:57:02.090Z,68040.28
2022-09-17T21:59:29.836Z,68032.16
2022-09-17T22:01:57.574Z,68033.88
2022-09-17T22:04:25.712Z,68035.56
2022-09-17T22:06:53.456Z,68033.50
2022-09-17T22:09:23.222Z,68036.34
2022-09-17T22:11:51.992Z,68048.59
2022-09-17T22:14:21.802Z,68037.81
2022-09-17T22:16:52.586Z,68034.44
2022-09-17T22:19:21.589Z,68033.31
2022-09-17T22:21:51.634Z,68035.19
2022-09-17T22:24:21.473Z,68033.31
2022-09-17T22:26:56.608Z,68034.25
2022-09-17T22:29:26.223Z,68036.91
2022-09-17T22:31:53.646Z,68034.25
2022-09-17T22:34:23.069Z,68026.53
2022-09-17T22:36:50.813Z,68029.72
2022-09-17T22:39:21.235Z,68017.47
2022-09-17T22:41:49.260Z,68008.44
2022-09-17T22:44:18.814Z,68002.22
2022-09-17T22:46:48.128Z,68003.16
2022-09-17T22:49:16.018Z,67997.31
2022-09-17T22:51:43.888Z,68002.22
2022-09-17T22:54:12.563Z,68002.00
2022-09-17T22:56:40.297Z,68002.00
2022-09-17T22:59:07.913Z,67996.00
2022-09-17T23:01:36.464Z,67994.28
2022-09-17T23:04:05.578Z,67997.69
2022-09-17T23:06:36.211Z,67994.69
2022-09-17T23:09:03.978Z,67998.81
2022-09-17T23:11:33.927Z,67999.75
2022-09-17T23:14:04.046Z,67991.47
2022-09-17T23:16:36.562Z,67998.63
2022-09-17T23:19:03.778Z,67993.16
2022-09-17T23:21:31.498Z,67991.47
2022-09-17T23:23:58.689Z,67989.00
2022-09-17T23:26:26.916Z,67987.88
2022-09-17T23:28:54.262Z,67988.63
2022-09-17T23:31:23.896Z,67985.25
2022-09-17T23:33:54.608Z,67981.50
2022-09-17T23:36:24.631Z,67986.38
2022-09-17T23:38:52.516Z,67984.69
2022-09-17T23:41:21.186Z,67985.81
2022-09-17T23:43:51.396Z,67983.53
2022-09-17T23:46:20.661Z,67987.88
2022-09-17T23:48:49.176Z,67987.13
2022-09-17T23:51:16.902Z,67991.47
2022-09-17T23:53:44.346Z,67992.03
2022-09-17T23:56:15.139Z,67999.19
2022-09-17T23:58:42.442Z,68005.41
